Hestrud (Nord, France) - 208 m
Donnes mto: Actuelle vendredi, 14/12/2018 05:59
Date Horaire Temp Out Temp. E. min Temp. E. max Temp. Sol 1 Hum Out Hum. Sol 1 Press Rain Wind Dir Dir Solar Ev.Tr. UV Hi Solar Rad Dew Point Windchill Wind (Gust)
14/12/2018 05:59 -5,4 C -5,4 C -5,4 C -4,4 C 95 % 200 cb 1020,1 hPa 0,0 mm 0,0 km/h (0 Bft) N 0 0 min 0,000 mm 0,0 UV-I 0 W/m -6,1 C -5,4 C 0,0 km/h (0 Bft)
14/12/2018 04:59 -5,2 C -5,2 C -5,2 C -4,4 C 94 % 200 cb 1019,6 hPa 0,0 mm 0,0 km/h (0 Bft) N 0 0 min 0,000 mm 0,0 UV-I 0 W/m -6,0 C -5,2 C 0,0 km/h (0 Bft)
14/12/2018 03:59 -5,2 C -5,2 C -5,2 C -4,4 C 91 % 200 cb 1019,8 hPa 0,0 mm 0,0 km/h (0 Bft) N 0 0 min 0,000 mm 0,0 UV-I 0 W/m -6,4 C -5,2 C 0,0 km/h (0 Bft)
14/12/2018 02:59 -3,9 C -3,9 C -3,9 C -3,9 C 93 % 200 cb 1019,9 hPa 0,0 mm 0,0 km/h (0 Bft) N 0 0 min 0,000 mm 0,0 UV-I 0 W/m -4,9 C -3,9 C 0,0 km/h (0 Bft)
14/12/2018 01:59 -3,9 C -3,9 C -3,8 C -3,9 C 91 % 200 cb 1019,7 hPa 0,0 mm 0,0 km/h (0 Bft) N 0 0 min 0,000 mm 0,0 UV-I 0 W/m -5,1 C -3,9 C 0,0 km/h (0 Bft)
14/12/2018 00:59 -3,3 C -3,3 C -3,3 C -3,3 C 91 % 200 cb 1019,4 hPa 0,0 mm 3,2 km/h (1 Bft) E-NE 67 0 min 0,000 mm 0,0 UV-I 0 W/m -4,6 C -3,3 C 8,0 km/h (2 Bft)
13/12/2018 23:59 -3,1 C -3,1 C -3,1 C -3,3 C 90 % 200 cb 1019,2 hPa 0,0 mm 6,4 km/h (2 Bft) E-NE 67 0 min 0,000 mm 0,0 UV-I 0 W/m -4,5 C -3,1 C 8,0 km/h (2 Bft)
13/12/2018 22:59 -2,8 C -2,8 C -2,8 C -2,8 C 91 % 200 cb 1019,0 hPa 0,0 mm 0,0 km/h (0 Bft) N 0 0 min 0,000 mm 0,0 UV-I 0 W/m -4,1 C -2,8 C 0,0 km/h (0 Bft)
13/12/2018 21:59 -2,6 C -2,6 C -2,6 C -2,8 C 90 % 200 cb 1019,2 hPa 0,0 mm 0,0 km/h (0 Bft) N 0 0 min 0,000 mm 0,0 UV-I 0 W/m -4,0 C -2,6 C 0,0 km/h (0 Bft)
13/12/2018 20:59 -2,2 C -2,2 C -2,2 C -2,2 C 90 % 198 cb 1018,8 hPa 0,0 mm 0,0 km/h (0 Bft) N 0 0 min 0,000 mm 0,0 UV-I 0 W/m -3,6 C -2,2 C 0,0 km/h (0 Bft)
13/12/2018 19:59 -1,9 C -1,9 C -1,9 C -2,2 C 89 % 197 cb 1018,4 hPa 0,0 mm 0,0 km/h (0 Bft) N 0 0 min 0,000 mm 0,0 UV-I 0 W/m -3,5 C -1,9 C 0,0 km/h (0 Bft)
13/12/2018 18:59 -1,4 C -1,4 C -1,3 C -1,7 C 86 % 196 cb 1017,9 hPa 0,0 mm 0,0 km/h (0 Bft) N 0 0 min 0,025 mm 0,0 UV-I 0 W/m -3,4 C -1,4 C 0,0 km/h (0 Bft)
13/12/2018 17:59 -0,6 C -0,6 C -0,6 C -1,1 C 82 % 196 cb 1017,8 hPa 0,0 mm 0,0 km/h (0 Bft) N 0 0 min 0,025 mm 0,0 UV-I 0 W/m -3,3 C -0,6 C 0,0 km/h (0 Bft)
13/12/2018 16:59 0,4 C 0,4 C 0,5 C -0,6 C 77 % 196 cb 1017,2 hPa 0,0 mm 1,6 km/h (1 Bft) NE 45 0 min 0,051 mm 0,0 UV-I 0 W/m -3,1 C 0,4 C 8,0 km/h (2 Bft)
13/12/2018 15:59 1,8 C 1,8 C 1,8 C 0,0 C 72 % 197 cb 1016,9 hPa 0,0 mm 11,3 km/h (2 Bft) NE 45 0 min 0,076 mm 0,0 UV-I 23 W/m -2,7 C -2,4 C 14,5 km/h (3 Bft)
13/12/2018 14:59 2,3 C 2,3 C 2,3 C 0,6 C 72 % 196 cb 1016,6 hPa 0,0 mm 8,0 km/h (2 Bft) NE 45 35 min 0,102 mm 0,0 UV-I 113 W/m -2,2 C 0,8 C 12,9 km/h (3 Bft)
13/12/2018 13:59 2,1 C 2,1 C 2,1 C 0,0 C 73 % 190 cb 1016,8 hPa 0,0 mm 12,9 km/h (3 Bft) E-SE 112 59 min 0,102 mm 0,5 UV-I 206 W/m -2,2 C -3,2 C 19,3 km/h (3 Bft)
13/12/2018 12:59 1,7 C 1,7 C 1,7 C 0,0 C 78 % 184 cb 1016,8 hPa 0,0 mm 11,3 km/h (2 Bft) E-NE 67 60 min 0,102 mm 0,6 UV-I 265 W/m -1,7 C -2,6 C 20,9 km/h (4 Bft)
13/12/2018 11:59 1,2 C 1,2 C 1,2 C -0,6 C 86 % 176 cb 1017,4 hPa 0,2 mm 11,3 km/h (2 Bft) NE 45 60 min 0,051 mm 0,5 UV-I 272 W/m -0,9 C -3,1 C 19,3 km/h (3 Bft)
13/12/2018 10:59 0,0 C 0,0 C 0,0 C -1,1 C 92 % 170 cb 1017,6 hPa 0,0 mm 6,4 km/h (2 Bft) NE 45 36 min 0,000 mm 0,0 UV-I 221 W/m -1,1 C 0,0 C 12,9 km/h (3 Bft)
13/12/2018 09:59 -2,2 C -2,2 C -2,2 C -2,2 C 97 % 161 cb 1018,0 hPa 0,0 mm 1,6 km/h (1 Bft) NE 45 0 min 0,000 mm 0,0 UV-I 65 W/m -2,6 C -2,2 C 6,4 km/h (2 Bft)
13/12/2018 08:59 -3,0 C -3,0 C -3,0 C -2,8 C 96 % 157 cb 1018,2 hPa 0,0 mm 0,0 km/h (0 Bft) E-NE 67 0 min 0,000 mm 0,0 UV-I 9 W/m -3,5 C -3,0 C 1,6 km/h (1 Bft)
13/12/2018 07:59 -2,6 C -2,6 C -2,6 C -2,2 C 97 % 153 cb 1018,0 hPa 0,0 mm 0,0 km/h (0 Bft) N 0 0 min 0,000 mm 0,0 UV-I 0 W/m -3,0 C -2,6 C 0,0 km/h (0 Bft)
13/12/2018 06:59 -3,3 C -3,3 C -3,3 C -2,8 C 97 % 148 cb 1018,1 hPa 0,0 mm 0,0 km/h (0 Bft) N 0 0 min 0,000 mm 0,0 UV-I 0 W/m -3,7 C -3,3 C 0,0 km/h (0 Bft)
13/12/2018 06:00 -3,7 C -3,7 C -3,7 C -3,3 C 96 % 143 cb 1018,6 hPa 0,0 mm 0,0 km/h (0 Bft) N 0 0 min 0,000 mm 0,0 UV-I 0 W/m -4,2 C -3,7 C 0,0 km/h (0 Bft)
_ Min-Heure 04:20 04:20 04:21 04:14 15:06 06:00 15:08 - 06:00 - - - - - - 04:20 12:47 06:00
Minimum _ -5,7 C -5,7 C -5,7 C -5,0 C 70 % 143 cb 1016,5 hPa - 0,0 km/h (0 Bft) - - - - - - -6,9 C -7,1 C 0,0 km/h (0 Bft)
_ Max-Heure 14:22 14:25 14:22 14:58 06:37 21:00 05:59 11:06 12:47 - - 10:24 12:00 12:37 12:19 12:03 14:26 12:57
Maximum _ 2,3 C 2,3 C 2,3 C 0,6 C 97 % 200 cb 1020,1 hPa 0,2 mm 19,3 km/h
NE (3 Bft)
- - 1 min 0,102 mm 0,7 UV-I 278 W/m -0,8 C 2,3 C 32,2 km/h
NE (5 Bft)
Moyenne _ -1,9 C -1,9 C -1,9 C -2,3 C 88 % 184 cb 1018,3 hPa #0,2 mm 2,9 km/h (1 Bft) NE - #0 min. #0,000 mm 0,0 UV-I 0 W/m -3,6 C -2,7 C 4,9 km/h (1 Bft)